sensor_id;sensor_type;location;lat;lon;timestamp;P1;durP1;ratioP1;P2;durP2;ratioP2
80131;SDS011;69442;51.442;10.564;2023-04-25T00:02:08;6.00;;;2.13;;
80131;SDS011;69442;51.442;10.564;2023-04-25T00:04:33;5.38;;;2.30;;
80131;SDS011;69442;51.442;10.564;2023-04-25T00:06:59;3.92;;;1.65;;
80131;SDS011;69442;51.442;10.564;2023-04-25T00:09:27;6.85;;;2.10;;
80131;SDS011;69442;51.442;10.564;2023-04-25T00:11:52;4.93;;;1.80;;
80131;SDS011;69442;51.442;10.564;2023-04-25T00:14:18;4.93;;;1.98;;
80131;SDS011;69442;51.442;10.564;2023-04-25T00:16:43;3.35;;;2.00;;
80131;SDS011;69442;51.442;10.564;2023-04-25T00:19:09;5.18;;;2.40;;
80131;SDS011;69442;51.442;10.564;2023-04-25T00:21:34;3.30;;;2.10;;
80131;SDS011;69442;51.442;10.564;2023-04-25T00:24:00;4.15;;;1.80;;
80131;SDS011;69442;51.442;10.564;2023-04-25T00:26:26;3.00;;;2.13;;
80131;SDS011;69442;51.442;10.564;2023-04-25T00:28:52;4.75;;;2.00;;
80131;SDS011;69442;51.442;10.564;2023-04-25T00:31:17;4.28;;;1.83;;
80131;SDS011;69442;51.442;10.564;2023-04-25T00:33:42;3.58;;;1.67;;
80131;SDS011;69442;51.442;10.564;2023-04-25T00:36:08;5.05;;;1.83;;
80131;SDS011;69442;51.442;10.564;2023-04-25T00:38:33;2.92;;;1.73;;
80131;SDS011;69442;51.442;10.564;2023-04-25T00:40:59;3.33;;;1.95;;
80131;SDS011;69442;51.442;10.564;2023-04-25T00:43:25;4.43;;;2.30;;
80131;SDS011;69442;51.442;10.564;2023-04-25T00:45:51;3.88;;;2.00;;
80131;SDS011;69442;51.442;10.564;2023-04-25T00:48:17;5.13;;;2.35;;
80131;SDS011;69442;51.442;10.564;2023-04-25T00:50:47;6.82;;;3.10;;
80131;SDS011;69442;51.442;10.564;2023-04-25T00:53:19;5.22;;;2.30;;
80131;SDS011;69442;51.442;10.564;2023-04-25T00:55:48;4.80;;;2.90;;
80131;SDS011;69442;51.442;10.564;2023-04-25T00:58:15;5.68;;;3.08;;
80131;SDS011;69442;51.442;10.564;2023-04-25T01:00:42;4.82;;;3.25;;
80131;SDS011;69442;51.442;10.564;2023-04-25T01:03:07;3.42;;;1.45;;
80131;SDS011;69442;51.442;10.564;2023-04-25T01:05:33;7.38;;;3.50;;
80131;SDS011;69442;51.442;10.564;2023-04-25T01:07:58;6.95;;;3.33;;
80131;SDS011;69442;51.442;10.564;2023-04-25T01:10:24;7.95;;;2.78;;
80131;SDS011;69442;51.442;10.564;2023-04-25T01:12:49;4.97;;;3.13;;
80131;SDS011;69442;51.442;10.564;2023-04-25T01:15:15;4.45;;;2.92;;
80131;SDS011;69442;51.442;10.564;2023-04-25T01:17:41;3.47;;;2.15;;
80131;SDS011;69442;51.442;10.564;2023-04-25T01:20:07;5.63;;;3.42;;
80131;SDS011;69442;51.442;10.564;2023-04-25T01:22:34;5.70;;;3.65;;
80131;SDS011;69442;51.442;10.564;2023-04-25T01:25:00;6.07;;;3.22;;
80131;SDS011;69442;51.442;10.564;2023-04-25T01:27:25;5.18;;;2.83;;
80131;SDS011;69442;51.442;10.564;2023-04-25T01:29:51;9.15;;;4.05;;
80131;SDS011;69442;51.442;10.564;2023-04-25T01:32:17;6.43;;;3.70;;
80131;SDS011;69442;51.442;10.564;2023-04-25T01:34:43;6.15;;;4.13;;
80131;SDS011;69442;51.442;10.564;2023-04-25T01:37:08;3.95;;;2.38;;
80131;SDS011;69442;51.442;10.564;2023-04-25T01:39:34;7.65;;;3.55;;
80131;SDS011;69442;51.442;10.564;2023-04-25T01:41:59;6.30;;;4.20;;
80131;SDS011;69442;51.442;10.564;2023-04-25T01:44:25;6.50;;;3.90;;
80131;SDS011;69442;51.442;10.564;2023-04-25T01:46:50;8.57;;;5.32;;
80131;SDS011;69442;51.442;10.564;2023-04-25T01:49:16;9.88;;;4.63;;
80131;SDS011;69442;51.442;10.564;2023-04-25T01:51:41;9.20;;;5.60;;
80131;SDS011;69442;51.442;10.564;2023-04-25T01:54:08;10.60;;;5.03;;
80131;SDS011;69442;51.442;10.564;2023-04-25T01:56:36;7.28;;;4.25;;
80131;SDS011;69442;51.442;10.564;2023-04-25T01:59:03;11.25;;;5.05;;
80131;SDS011;69442;51.442;10.564;2023-04-25T02:01:29;10.00;;;5.18;;
80131;SDS011;69442;51.442;10.564;2023-04-25T02:03:55;11.32;;;5.25;;
80131;SDS011;69442;51.442;10.564;2023-04-25T02:06:20;10.63;;;5.88;;
80131;SDS011;69442;51.442;10.564;2023-04-25T02:08:45;11.27;;;6.10;;
80131;SDS011;69442;51.442;10.564;2023-04-25T02:11:11;8.80;;;4.35;;
80131;SDS011;69442;51.442;10.564;2023-04-25T02:13:36;4.55;;;3.03;;
80131;SDS011;69442;51.442;10.564;2023-04-25T02:16:01;12.13;;;6.25;;
80131;SDS011;69442;51.442;10.564;2023-04-25T02:18:27;9.15;;;5.15;;
80131;SDS011;69442;51.442;10.564;2023-04-25T02:20:52;8.68;;;5.25;;
80131;SDS011;69442;51.442;10.564;2023-04-25T02:23:18;8.32;;;4.95;;
80131;SDS011;69442;51.442;10.564;2023-04-25T02:25:46;10.90;;;5.45;;
80131;SDS011;69442;51.442;10.564;2023-04-25T02:28:11;8.30;;;4.15;;
80131;SDS011;69442;51.442;10.564;2023-04-25T02:30:37;10.20;;;4.70;;
80131;SDS011;69442;51.442;10.564;2023-04-25T02:33:02;8.85;;;3.85;;
80131;SDS011;69442;51.442;10.564;2023-04-25T02:35:28;10.48;;;4.57;;
80131;SDS011;69442;51.442;10.564;2023-04-25T02:37:53;7.65;;;3.88;;
80131;SDS011;69442;51.442;10.564;2023-04-25T02:40:26;7.40;;;3.72;;
80131;SDS011;69442;51.442;10.564;2023-04-25T02:42:52;8.85;;;3.85;;
80131;SDS011;69442;51.442;10.564;2023-04-25T02:45:17;7.70;;;4.43;;
80131;SDS011;69442;51.442;10.564;2023-04-25T02:47:42;8.27;;;3.92;;
80131;SDS011;69442;51.442;10.564;2023-04-25T02:50:08;8.52;;;3.97;;
80131;SDS011;69442;51.442;10.564;2023-04-25T02:52:34;9.73;;;4.30;;
80131;SDS011;69442;51.442;10.564;2023-04-25T02:54:59;7.70;;;3.97;;
80131;SDS011;69442;51.442;10.564;2023-04-25T02:57:24;9.75;;;5.82;;
80131;SDS011;69442;51.442;10.564;2023-04-25T02:59:50;11.80;;;4.20;;
80131;SDS011;69442;51.442;10.564;2023-04-25T03:02:15;7.85;;;4.00;;
80131;SDS011;69442;51.442;10.564;2023-04-25T03:04:40;8.95;;;3.92;;
80131;SDS011;69442;51.442;10.564;2023-04-25T03:07:06;9.32;;;4.78;;
80131;SDS011;69442;51.442;10.564;2023-04-25T03:09:31;8.05;;;4.32;;
80131;SDS011;69442;51.442;10.564;2023-04-25T03:11:57;8.70;;;4.07;;
80131;SDS011;69442;51.442;10.564;2023-04-25T03:14:22;9.93;;;4.45;;
80131;SDS011;69442;51.442;10.564;2023-04-25T03:16:48;7.50;;;4.15;;
80131;SDS011;69442;51.442;10.564;2023-04-25T03:19:13;9.25;;;4.80;;
80131;SDS011;69442;51.442;10.564;2023-04-25T03:21:41;8.95;;;4.30;;
80131;SDS011;69442;51.442;10.564;2023-04-25T03:24:06;5.78;;;3.58;;
80131;SDS011;69442;51.442;10.564;2023-04-25T03:26:32;7.35;;;3.58;;
80131;SDS011;69442;51.442;10.564;2023-04-25T03:28:57;7.50;;;3.97;;
80131;SDS011;69442;51.442;10.564;2023-04-25T03:31:22;8.20;;;3.35;;
80131;SDS011;69442;51.442;10.564;2023-04-25T03:33:48;7.20;;;2.85;;
80131;SDS011;69442;51.442;10.564;2023-04-25T03:36:13;6.70;;;3.28;;
80131;SDS011;69442;51.442;10.564;2023-04-25T03:38:39;9.05;;;3.95;;
80131;SDS011;69442;51.442;10.564;2023-04-25T03:41:06;3.40;;;2.10;;
80131;SDS011;69442;51.442;10.564;2023-04-25T03:43:31;6.43;;;3.88;;
80131;SDS011;69442;51.442;10.564;2023-04-25T03:45:57;8.95;;;4.05;;
80131;SDS011;69442;51.442;10.564;2023-04-25T03:48:22;6.13;;;3.30;;
80131;SDS011;69442;51.442;10.564;2023-04-25T03:50:49;5.60;;;3.03;;
80131;SDS011;69442;51.442;10.564;2023-04-25T03:53:15;4.22;;;1.50;;
80131;SDS011;69442;51.442;10.564;2023-04-25T03:55:40;7.88;;;3.22;;
80131;SDS011;69442;51.442;10.564;2023-04-25T03:58:05;4.50;;;2.95;;
80131;SDS011;69442;51.442;10.564;2023-04-25T04:00:33;8.27;;;3.88;;
80131;SDS011;69442;51.442;10.564;2023-04-25T04:02:58;5.53;;;3.33;;
80131;SDS011;69442;51.442;10.564;2023-04-25T04:05:24;8.20;;;3.83;;
80131;SDS011;69442;51.442;10.564;2023-04-25T04:07:49;5.80;;;3.00;;
80131;SDS011;69442;51.442;10.564;2023-04-25T04:10:15;7.22;;;3.83;;
80131;SDS011;69442;51.442;10.564;2023-04-25T04:12:40;5.65;;;3.13;;
80131;SDS011;69442;51.442;10.564;2023-04-25T04:15:06;7.07;;;3.42;;
80131;SDS011;69442;51.442;10.564;2023-04-25T04:17:32;5.57;;;3.47;;
80131;SDS011;69442;51.442;10.564;2023-04-25T04:19:57;6.40;;;3.25;;
80131;SDS011;69442;51.442;10.564;2023-04-25T04:22:23;4.72;;;3.10;;
80131;SDS011;69442;51.442;10.564;2023-04-25T04:24:49;8.88;;;3.38;;
80131;SDS011;69442;51.442;10.564;2023-04-25T04:27:15;7.53;;;3.70;;
80131;SDS011;69442;51.442;10.564;2023-04-25T04:29:42;6.63;;;3.83;;
80131;SDS011;69442;51.442;10.564;2023-04-25T04:32:08;7.80;;;4.07;;
80131;SDS011;69442;51.442;10.564;2023-04-25T04:34:33;10.35;;;4.85;;
80131;SDS011;69442;51.442;10.564;2023-04-25T04:36:59;8.90;;;4.47;;
80131;SDS011;69442;51.442;10.564;2023-04-25T04:39:25;8.18;;;4.20;;
80131;SDS011;69442;51.442;10.564;2023-04-25T04:41:50;7.28;;;4.03;;
80131;SDS011;69442;51.442;10.564;2023-04-25T04:44:16;9.98;;;5.07;;
80131;SDS011;69442;51.442;10.564;2023-04-25T04:46:41;7.57;;;4.47;;
80131;SDS011;69442;51.442;10.564;2023-04-25T04:49:10;13.75;;;4.78;;
80131;SDS011;69442;51.442;10.564;2023-04-25T04:51:37;10.45;;;5.05;;
80131;SDS011;69442;51.442;10.564;2023-04-25T04:54:03;7.50;;;4.35;;
80131;SDS011;69442;51.442;10.564;2023-04-25T04:56:29;10.32;;;4.28;;
80131;SDS011;69442;51.442;10.564;2023-04-25T04:58:56;10.52;;;4.38;;
80131;SDS011;69442;51.442;10.564;2023-04-25T05:01:22;7.68;;;4.43;;
80131;SDS011;69442;51.442;10.564;2023-04-25T05:03:48;8.75;;;4.85;;
80131;SDS011;69442;51.442;10.564;2023-04-25T05:06:13;9.88;;;6.28;;
80131;SDS011;69442;51.442;10.564;2023-04-25T05:08:39;12.70;;;5.35;;
80131;SDS011;69442;51.442;10.564;2023-04-25T05:11:04;8.27;;;4.75;;
80131;SDS011;69442;51.442;10.564;2023-04-25T05:13:30;7.80;;;4.65;;
80131;SDS011;69442;51.442;10.564;2023-04-25T05:15:55;8.80;;;4.53;;
80131;SDS011;69442;51.442;10.564;2023-04-25T05:18:20;8.65;;;4.65;;
80131;SDS011;69442;51.442;10.564;2023-04-25T05:20:46;9.35;;;5.30;;
80131;SDS011;69442;51.442;10.564;2023-04-25T05:23:11;7.13;;;3.90;;
80131;SDS011;69442;51.442;10.564;2023-04-25T05:25:37;8.27;;;4.47;;
80131;SDS011;69442;51.442;10.564;2023-04-25T05:28:02;8.70;;;4.20;;
80131;SDS011;69442;51.442;10.564;2023-04-25T05:30:27;9.43;;;4.28;;
80131;SDS011;69442;51.442;10.564;2023-04-25T05:32:53;5.38;;;3.33;;
80131;SDS011;69442;51.442;10.564;2023-04-25T05:35:18;6.07;;;3.53;;
80131;SDS011;69442;51.442;10.564;2023-04-25T05:37:43;8.07;;;3.90;;
80131;SDS011;69442;51.442;10.564;2023-04-25T05:40:09;7.78;;;4.32;;
80131;SDS011;69442;51.442;10.564;2023-04-25T05:42:35;6.72;;;3.50;;
80131;SDS011;69442;51.442;10.564;2023-04-25T05:45:00;8.88;;;4.00;;
80131;SDS011;69442;51.442;10.564;2023-04-25T05:47:26;6.25;;;3.42;;
80131;SDS011;69442;51.442;10.564;2023-04-25T05:49:51;8.02;;;4.35;;
80131;SDS011;69442;51.442;10.564;2023-04-25T05:52:16;5.45;;;3.60;;
80131;SDS011;69442;51.442;10.564;2023-04-25T05:54:42;12.02;;;4.40;;
80131;SDS011;69442;51.442;10.564;2023-04-25T05:57:07;6.88;;;4.75;;
80131;SDS011;69442;51.442;10.564;2023-04-25T05:59:33;7.15;;;4.13;;
80131;SDS011;69442;51.442;10.564;2023-04-25T06:01:58;6.82;;;3.80;;
80131;SDS011;69442;51.442;10.564;2023-04-25T06:04:24;9.85;;;4.70;;
80131;SDS011;69442;51.442;10.564;2023-04-25T06:06:50;5.88;;;3.67;;
80131;SDS011;69442;51.442;10.564;2023-04-25T06:09:15;7.40;;;4.10;;
80131;SDS011;69442;51.442;10.564;2023-04-25T06:11:41;7.28;;;3.60;;
80131;SDS011;69442;51.442;10.564;2023-04-25T06:14:06;5.10;;;3.08;;
80131;SDS011;69442;51.442;10.564;2023-04-25T06:16:32;5.68;;;3.70;;
80131;SDS011;69442;51.442;10.564;2023-04-25T06:18:58;8.48;;;3.90;;
80131;SDS011;69442;51.442;10.564;2023-04-25T06:21:23;5.70;;;3.00;;
80131;SDS011;69442;51.442;10.564;2023-04-25T06:23:48;5.60;;;3.33;;
80131;SDS011;69442;51.442;10.564;2023-04-25T06:26:14;5.68;;;3.28;;
80131;SDS011;69442;51.442;10.564;2023-04-25T06:28:39;5.35;;;3.03;;
80131;SDS011;69442;51.442;10.564;2023-04-25T06:31:04;6.68;;;3.10;;
80131;SDS011;69442;51.442;10.564;2023-04-25T06:33:30;4.30;;;2.65;;
80131;SDS011;69442;51.442;10.564;2023-04-25T06:35:55;5.90;;;3.28;;
80131;SDS011;69442;51.442;10.564;2023-04-25T06:38:20;4.22;;;2.13;;
80131;SDS011;69442;51.442;10.564;2023-04-25T06:40:46;4.15;;;2.78;;
80131;SDS011;69442;51.442;10.564;2023-04-25T06:43:11;4.75;;;2.50;;
80131;SDS011;69442;51.442;10.564;2023-04-25T06:45:36;5.80;;;2.22;;
80131;SDS011;69442;51.442;10.564;2023-04-25T06:48:02;5.63;;;2.30;;
80131;SDS011;69442;51.442;10.564;2023-04-25T06:50:27;3.85;;;2.17;;
80131;SDS011;69442;51.442;10.564;2023-04-25T06:52:53;6.78;;;2.85;;
80131;SDS011;69442;51.442;10.564;2023-04-25T06:55:18;7.63;;;2.55;;
80131;SDS011;69442;51.442;10.564;2023-04-25T06:57:44;7.57;;;3.08;;
80131;SDS011;69442;51.442;10.564;2023-04-25T07:00:10;8.70;;;2.20;;
80131;SDS011;69442;51.442;10.564;2023-04-25T07:02:35;10.75;;;2.65;;
80131;SDS011;69442;51.442;10.564;2023-04-25T07:05:01;8.13;;;2.65;;
80131;SDS011;69442;51.442;10.564;2023-04-25T07:07:29;6.55;;;2.95;;
80131;SDS011;69442;51.442;10.564;2023-04-25T07:09:55;4.28;;;1.98;;
80131;SDS011;69442;51.442;10.564;2023-04-25T07:12:20;7.72;;;2.53;;
80131;SDS011;69442;51.442;10.564;2023-04-25T07:14:46;8.63;;;2.25;;
80131;SDS011;69442;51.442;10.564;2023-04-25T07:17:11;6.68;;;2.55;;
80131;SDS011;69442;51.442;10.564;2023-04-25T07:19:36;3.80;;;1.73;;
80131;SDS011;69442;51.442;10.564;2023-04-25T07:22:03;7.97;;;2.17;;
80131;SDS011;69442;51.442;10.564;2023-04-25T07:24:29;9.40;;;2.08;;
80131;SDS011;69442;51.442;10.564;2023-04-25T07:26:58;7.03;;;2.25;;
80131;SDS011;69442;51.442;10.564;2023-04-25T07:29:23;7.35;;;2.38;;
80131;SDS011;69442;51.442;10.564;2023-04-25T07:31:48;4.95;;;1.88;;
80131;SDS011;69442;51.442;10.564;2023-04-25T07:34:14;7.57;;;2.78;;
80131;SDS011;69442;51.442;10.564;2023-04-25T07:36:40;6.15;;;2.30;;
80131;SDS011;69442;51.442;10.564;2023-04-25T07:39:06;4.30;;;2.20;;
80131;SDS011;69442;51.442;10.564;2023-04-25T07:41:31;7.05;;;2.45;;
80131;SDS011;69442;51.442;10.564;2023-04-25T07:43:57;6.85;;;2.00;;
80131;SDS011;69442;51.442;10.564;2023-04-25T07:46:22;8.98;;;2.60;;
80131;SDS011;69442;51.442;10.564;2023-04-25T07:48:48;9.23;;;3.28;;
80131;SDS011;69442;51.442;10.564;2023-04-25T07:51:14;10.57;;;2.55;;
80131;SDS011;69442;51.442;10.564;2023-04-25T07:53:39;5.88;;;2.10;;
80131;SDS011;69442;51.442;10.564;2023-04-25T07:56:05;8.43;;;3.67;;
80131;SDS011;69442;51.442;10.564;2023-04-25T07:58:31;7.93;;;2.42;;
80131;SDS011;69442;51.442;10.564;2023-04-25T08:00:56;11.40;;;3.13;;
80131;SDS011;69442;51.442;10.564;2023-04-25T08:03:22;5.97;;;2.25;;
80131;SDS011;69442;51.442;10.564;2023-04-25T08:05:47;6.43;;;2.00;;
80131;SDS011;69442;51.442;10.564;2023-04-25T08:08:13;7.28;;;3.03;;
80131;SDS011;69442;51.442;10.564;2023-04-25T08:10:38;7.53;;;2.30;;
80131;SDS011;69442;51.442;10.564;2023-04-25T08:13:04;4.78;;;1.50;;
80131;SDS011;69442;51.442;10.564;2023-04-25T08:15:29;10.38;;;2.13;;
80131;SDS011;69442;51.442;10.564;2023-04-25T08:17:54;8.98;;;2.67;;
80131;SDS011;69442;51.442;10.564;2023-04-25T08:20:20;10.45;;;2.40;;
80131;SDS011;69442;51.442;10.564;2023-04-25T08:22:45;8.25;;;2.83;;
80131;SDS011;69442;51.442;10.564;2023-04-25T08:25:10;7.63;;;1.90;;
80131;SDS011;69442;51.442;10.564;2023-04-25T08:27:36;7.38;;;2.50;;
80131;SDS011;69442;51.442;10.564;2023-04-25T08:30:02;8.60;;;2.08;;
80131;SDS011;69442;51.442;10.564;2023-04-25T08:32:28;6.35;;;2.10;;
80131;SDS011;69442;51.442;10.564;2023-04-25T08:34:53;6.72;;;1.80;;
80131;SDS011;69442;51.442;10.564;2023-04-25T08:37:20;10.07;;;2.38;;
80131;SDS011;69442;51.442;10.564;2023-04-25T08:39:46;4.32;;;1.65;;
80131;SDS011;69442;51.442;10.564;2023-04-25T08:42:13;8.68;;;2.75;;
80131;SDS011;69442;51.442;10.564;2023-04-25T08:44:40;7.70;;;2.63;;
80131;SDS011;69442;51.442;10.564;2023-04-25T08:47:06;8.32;;;2.47;;
80131;SDS011;69442;51.442;10.564;2023-04-25T08:49:32;9.85;;;3.30;;
80131;SDS011;69442;51.442;10.564;2023-04-25T08:52:02;5.40;;;1.73;;
80131;SDS011;69442;51.442;10.564;2023-04-25T08:54:30;10.98;;;2.75;;
80131;SDS011;69442;51.442;10.564;2023-04-25T08:56:57;7.68;;;1.95;;
80131;SDS011;69442;51.442;10.564;2023-04-25T08:59:26;7.25;;;1.70;;
80131;SDS011;69442;51.442;10.564;2023-04-25T09:01:53;8.90;;;2.80;;
80131;SDS011;69442;51.442;10.564;2023-04-25T09:04:18;7.25;;;2.25;;
80131;SDS011;69442;51.442;10.564;2023-04-25T09:06:45;7.25;;;2.17;;
80131;SDS011;69442;51.442;10.564;2023-04-25T09:09:11;9.48;;;2.47;;
80131;SDS011;69442;51.442;10.564;2023-04-25T09:11:37;10.30;;;1.95;;
80131;SDS011;69442;51.442;10.564;2023-04-25T09:14:21;6.60;;;2.00;;
80131;SDS011;69442;51.442;10.564;2023-04-25T09:19:22;10.82;;;2.65;;
80131;SDS011;69442;51.442;10.564;2023-04-25T09:21:49;7.97;;;2.38;;
80131;SDS011;69442;51.442;10.564;2023-04-25T09:24:15;8.23;;;1.90;;
80131;SDS011;69442;51.442;10.564;2023-04-25T09:26:41;2.88;;;1.90;;
80131;SDS011;69442;51.442;10.564;2023-04-25T09:29:07;6.13;;;2.30;;
80131;SDS011;69442;51.442;10.564;2023-04-25T09:31:33;6.32;;;2.50;;
80131;SDS011;69442;51.442;10.564;2023-04-25T09:33:59;12.52;;;3.47;;
80131;SDS011;69442;51.442;10.564;2023-04-25T09:36:29;10.40;;;2.10;;
80131;SDS011;69442;51.442;10.564;2023-04-25T09:38:55;8.52;;;2.10;;
80131;SDS011;69442;51.442;10.564;2023-04-25T09:41:24;4.95;;;2.25;;
80131;SDS011;69442;51.442;10.564;2023-04-25T09:43:50;6.60;;;2.05;;
80131;SDS011;69442;51.442;10.564;2023-04-25T09:46:16;4.75;;;1.92;;
80131;SDS011;69442;51.442;10.564;2023-04-25T09:48:52;9.23;;;2.60;;
80131;SDS011;69442;51.442;10.564;2023-04-25T09:51:18;6.88;;;2.20;;
80131;SDS011;69442;51.442;10.564;2023-04-25T09:53:44;9.20;;;2.58;;
80131;SDS011;69442;51.442;10.564;2023-04-25T09:56:11;8.25;;;2.25;;
80131;SDS011;69442;51.442;10.564;2023-04-25T09:58:38;7.50;;;2.00;;
80131;SDS011;69442;51.442;10.564;2023-04-25T10:01:14;8.02;;;2.20;;
80131;SDS011;69442;51.442;10.564;2023-04-25T10:03:41;5.75;;;2.03;;
80131;SDS011;69442;51.442;10.564;2023-04-25T10:06:09;8.13;;;2.13;;
80131;SDS011;69442;51.442;10.564;2023-04-25T10:08:39;8.77;;;2.72;;
80131;SDS011;69442;51.442;10.564;2023-04-25T10:11:05;7.63;;;2.38;;
80131;SDS011;69442;51.442;10.564;2023-04-25T10:13:33;6.85;;;2.38;;
80131;SDS011;69442;51.442;10.564;2023-04-25T10:16:00;3.80;;;2.15;;
80131;SDS011;69442;51.442;10.564;2023-04-25T10:18:27;5.07;;;1.65;;
80131;SDS011;69442;51.442;10.564;2023-04-25T10:20:54;2.33;;;1.35;;
80131;SDS011;69442;51.442;10.564;2023-04-25T10:23:21;3.92;;;1.90;;
80131;SDS011;69442;51.442;10.564;2023-04-25T10:25:46;4.05;;;1.73;;
80131;SDS011;69442;51.442;10.564;2023-04-25T10:28:12;5.28;;;1.65;;
80131;SDS011;69442;51.442;10.564;2023-04-25T10:30:38;4.40;;;1.55;;
80131;SDS011;69442;51.442;10.564;2023-04-25T10:33:29;7.50;;;2.75;;
80131;SDS011;69442;51.442;10.564;2023-04-25T10:35:57;3.47;;;1.80;;
80131;SDS011;69442;51.442;10.564;2023-04-25T10:38:23;3.60;;;1.52;;
80131;SDS011;69442;51.442;10.564;2023-04-25T10:41:03;6.65;;;1.98;;
80131;SDS011;69442;51.442;10.564;2023-04-25T10:43:37;3.85;;;1.27;;
80131;SDS011;69442;51.442;10.564;2023-04-25T10:46:12;2.75;;;1.63;;
80131;SDS011;69442;51.442;10.564;2023-04-25T10:48:48;3.38;;;1.60;;
80131;SDS011;69442;51.442;10.564;2023-04-25T10:53:44;4.53;;;1.50;;
80131;SDS011;69442;51.442;10.564;2023-04-25T10:56:11;4.60;;;1.30;;
80131;SDS011;69442;51.442;10.564;2023-04-25T11:01:37;8.85;;;1.58;;
80131;SDS011;69442;51.442;10.564;2023-04-25T11:04:18;2.22;;;1.70;;
80131;SDS011;69442;51.442;10.564;2023-04-25T11:09:35;2.83;;;1.35;;
80131;SDS011;69442;51.442;10.564;2023-04-25T11:12:02;5.95;;;1.70;;
80131;SDS011;69442;51.442;10.564;2023-04-25T11:14:28;4.15;;;1.27;;
80131;SDS011;69442;51.442;10.564;2023-04-25T11:16:54;4.68;;;2.22;;
80131;SDS011;69442;51.442;10.564;2023-04-25T11:19:21;4.30;;;2.08;;
80131;SDS011;69442;51.442;10.564;2023-04-25T11:21:46;6.75;;;2.40;;
80131;SDS011;69442;51.442;10.564;2023-04-25T11:24:12;6.25;;;1.75;;
80131;SDS011;69442;51.442;10.564;2023-04-25T11:26:37;4.40;;;1.58;;
80131;SDS011;69442;51.442;10.564;2023-04-25T11:29:03;5.68;;;2.00;;
80131;SDS011;69442;51.442;10.564;2023-04-25T11:31:28;5.78;;;2.13;;
80131;SDS011;69442;51.442;10.564;2023-04-25T11:33:56;3.72;;;1.30;;
80131;SDS011;69442;51.442;10.564;2023-04-25T11:36:22;4.40;;;1.77;;
80131;SDS011;69442;51.442;10.564;2023-04-25T11:38:49;3.20;;;1.88;;
80131;SDS011;69442;51.442;10.564;2023-04-25T11:41:18;5.47;;;1.50;;
80131;SDS011;69442;51.442;10.564;2023-04-25T11:43:46;3.35;;;1.75;;
80131;SDS011;69442;51.442;10.564;2023-04-25T11:46:13;5.00;;;1.70;;
80131;SDS011;69442;51.442;10.564;2023-04-25T11:48:39;3.42;;;1.25;;
80131;SDS011;69442;51.442;10.564;2023-04-25T11:51:08;5.05;;;1.58;;
80131;SDS011;69442;51.442;10.564;2023-04-25T11:53:34;6.00;;;2.00;;
80131;SDS011;69442;51.442;10.564;2023-04-25T11:56:00;5.95;;;1.60;;
80131;SDS011;69442;51.442;10.564;2023-04-25T11:58:26;3.83;;;1.30;;
80131;SDS011;69442;51.442;10.564;2023-04-25T12:00:53;3.35;;;1.20;;
80131;SDS011;69442;51.442;10.564;2023-04-25T12:03:19;3.97;;;1.30;;
80131;SDS011;69442;51.442;10.564;2023-04-25T12:05:48;6.78;;;2.28;;
80131;SDS011;69442;51.442;10.564;2023-04-25T12:08:16;5.35;;;1.50;;
80131;SDS011;69442;51.442;10.564;2023-04-25T12:10:43;5.05;;;1.60;;
80131;SDS011;69442;51.442;10.564;2023-04-25T12:13:20;4.65;;;1.50;;
80131;SDS011;69442;51.442;10.564;2023-04-25T12:15:51;2.38;;;1.30;;
80131;SDS011;69442;51.442;10.564;2023-04-25T12:18:20;5.85;;;1.60;;
80131;SDS011;69442;51.442;10.564;2023-04-25T12:20:49;3.13;;;1.25;;
80131;SDS011;69442;51.442;10.564;2023-04-25T12:23:14;5.53;;;1.80;;
80131;SDS011;69442;51.442;10.564;2023-04-25T12:28:10;3.20;;;1.30;;
80131;SDS011;69442;51.442;10.564;2023-04-25T12:30:55;5.53;;;1.10;;
80131;SDS011;69442;51.442;10.564;2023-04-25T12:33:21;5.68;;;1.65;;
80131;SDS011;69442;51.442;10.564;2023-04-25T12:35:47;5.15;;;1.35;;
80131;SDS011;69442;51.442;10.564;2023-04-25T12:38:20;9.13;;;1.88;;
80131;SDS011;69442;51.442;10.564;2023-04-25T12:40:49;5.43;;;1.80;;
80131;SDS011;69442;51.442;10.564;2023-04-25T12:43:14;5.32;;;1.67;;
80131;SDS011;69442;51.442;10.564;2023-04-25T12:45:41;4.82;;;1.50;;
80131;SDS011;69442;51.442;10.564;2023-04-25T12:48:07;1.65;;;1.08;;
80131;SDS011;69442;51.442;10.564;2023-04-25T12:50:32;2.47;;;1.20;;
80131;SDS011;69442;51.442;10.564;2023-04-25T12:52:57;3.60;;;1.17;;
80131;SDS011;69442;51.442;10.564;2023-04-25T12:55:23;5.57;;;2.03;;
80131;SDS011;69442;51.442;10.564;2023-04-25T12:57:48;4.95;;;1.50;;
80131;SDS011;69442;51.442;10.564;2023-04-25T13:00:14;4.20;;;1.50;;
80131;SDS011;69442;51.442;10.564;2023-04-25T13:02:42;1.85;;;1.40;;
80131;SDS011;69442;51.442;10.564;2023-04-25T13:05:08;5.28;;;2.63;;
80131;SDS011;69442;51.442;10.564;2023-04-25T13:07:34;6.00;;;1.58;;
80131;SDS011;69442;51.442;10.564;2023-04-25T13:10:00;5.78;;;1.63;;
80131;SDS011;69442;51.442;10.564;2023-04-25T13:12:27;6.35;;;1.88;;
80131;SDS011;69442;51.442;10.564;2023-04-25T13:14:53;4.57;;;1.52;;
80131;SDS011;69442;51.442;10.564;2023-04-25T13:17:18;4.40;;;1.27;;
80131;SDS011;69442;51.442;10.564;2023-04-25T13:19:43;5.10;;;1.75;;
80131;SDS011;69442;51.442;10.564;2023-04-25T13:22:09;3.45;;;1.33;;
80131;SDS011;69442;51.442;10.564;2023-04-25T13:24:34;3.97;;;1.58;;
80131;SDS011;69442;51.442;10.564;2023-04-25T13:26:59;4.60;;;1.35;;
80131;SDS011;69442;51.442;10.564;2023-04-25T13:29:26;2.65;;;1.42;;
80131;SDS011;69442;51.442;10.564;2023-04-25T13:31:51;5.10;;;1.75;;
80131;SDS011;69442;51.442;10.564;2023-04-25T13:34:17;6.38;;;1.90;;
80131;SDS011;69442;51.442;10.564;2023-04-25T13:36:42;4.97;;;1.70;;
80131;SDS011;69442;51.442;10.564;2023-04-25T13:39:07;4.40;;;1.50;;
80131;SDS011;69442;51.442;10.564;2023-04-25T13:41:33;3.63;;;1.70;;
80131;SDS011;69442;51.442;10.564;2023-04-25T13:43:58;3.88;;;1.52;;
80131;SDS011;69442;51.442;10.564;2023-04-25T13:46:25;3.67;;;1.48;;
80131;SDS011;69442;51.442;10.564;2023-04-25T13:48:51;5.75;;;1.63;;
80131;SDS011;69442;51.442;10.564;2023-04-25T13:51:17;2.97;;;1.63;;
80131;SDS011;69442;51.442;10.564;2023-04-25T13:53:42;3.20;;;1.40;;
80131;SDS011;69442;51.442;10.564;2023-04-25T13:56:08;3.47;;;1.73;;
80131;SDS011;69442;51.442;10.564;2023-04-25T13:58:36;1.80;;;1.15;;
80131;SDS011;69442;51.442;10.564;2023-04-25T14:01:02;4.70;;;1.38;;
80131;SDS011;69442;51.442;10.564;2023-04-25T14:03:29;3.78;;;1.45;;
80131;SDS011;69442;51.442;10.564;2023-04-25T14:05:55;4.75;;;1.70;;
80131;SDS011;69442;51.442;10.564;2023-04-25T14:08:21;3.10;;;1.35;;
80131;SDS011;69442;51.442;10.564;2023-04-25T14:10:46;3.92;;;1.77;;
80131;SDS011;69442;51.442;10.564;2023-04-25T14:13:11;1.83;;;1.38;;
80131;SDS011;69442;51.442;10.564;2023-04-25T14:15:37;3.92;;;1.30;;
80131;SDS011;69442;51.442;10.564;2023-04-25T14:18:03;4.70;;;1.60;;
80131;SDS011;69442;51.442;10.564;2023-04-25T14:20:29;5.07;;;1.80;;
80131;SDS011;69442;51.442;10.564;2023-04-25T14:22:55;1.33;;;1.08;;
80131;SDS011;69442;51.442;10.564;2023-04-25T14:25:22;4.30;;;1.52;;
80131;SDS011;69442;51.442;10.564;2023-04-25T14:27:48;4.10;;;1.17;;
80131;SDS011;69442;51.442;10.564;2023-04-25T14:30:15;2.88;;;2.00;;
80131;SDS011;69442;51.442;10.564;2023-04-25T14:32:42;2.30;;;1.20;;
80131;SDS011;69442;51.442;10.564;2023-04-25T14:35:07;4.65;;;1.50;;
80131;SDS011;69442;51.442;10.564;2023-04-25T14:37:34;6.60;;;2.03;;
80131;SDS011;69442;51.442;10.564;2023-04-25T14:39:59;2.65;;;1.50;;
80131;SDS011;69442;51.442;10.564;2023-04-25T14:42:24;4.85;;;1.40;;